sensor_id;sensor_type;location;lat;lon;timestamp;pressure;altitude;pressure_sealevel;temperature;humidity
16738;BME280;17906;47.684;10.806;2022-08-19T00:00:18;92903.75;;;13.27;100.00
16738;BME280;17906;47.684;10.806;2022-08-19T00:02:45;92905.38;;;13.28;100.00
16738;BME280;17906;47.684;10.806;2022-08-19T00:05:13;92905.91;;;13.20;100.00
16738;BME280;17906;47.684;10.806;2022-08-19T00:07:40;92908.38;;;13.12;100.00
16738;BME280;17906;47.684;10.806;2022-08-19T00:10:09;92907.56;;;13.16;100.00
16738;BME280;17906;47.684;10.806;2022-08-19T00:12:37;92912.97;;;13.11;100.00
16738;BME280;17906;47.684;10.806;2022-08-19T00:15:09;92910.53;;;13.10;100.00
16738;BME280;17906;47.684;10.806;2022-08-19T00:17:38;92919.00;;;13.13;100.00
16738;BME280;17906;47.684;10.806;2022-08-19T00:20:06;92912.44;;;13.09;100.00
16738;BME280;17906;47.684;10.806;2022-08-19T00:22:32;92905.38;;;13.08;100.00
16738;BME280;17906;47.684;10.806;2022-08-19T00:24:59;92901.28;;;13.21;100.00
16738;BME280;17906;47.684;10.806;2022-08-19T00:27:26;92895.00;;;13.00;100.00
16738;BME280;17906;47.684;10.806;2022-08-19T00:29:53;92901.03;;;13.02;100.00
16738;BME280;17906;47.684;10.806;2022-08-19T00:32:21;92894.22;;;12.94;100.00
16738;BME280;17906;47.684;10.806;2022-08-19T00:34:48;92895.59;;;13.02;100.00
16738;BME280;17906;47.684;10.806;2022-08-19T00:37:14;92887.94;;;12.99;100.00
16738;BME280;17906;47.684;10.806;2022-08-19T00:39:41;92880.06;;;12.92;100.00
16738;BME280;17906;47.684;10.806;2022-08-19T00:42:08;92877.34;;;12.92;100.00
16738;BME280;17906;47.684;10.806;2022-08-19T00:44:34;92872.16;;;12.96;100.00
16738;BME280;17906;47.684;10.806;2022-08-19T00:47:01;92884.41;;;12.93;100.00
16738;BME280;17906;47.684;10.806;2022-08-19T00:49:34;92880.34;;;13.01;100.00
16738;BME280;17906;47.684;10.806;2022-08-19T00:52:04;92883.34;;;13.04;100.00
16738;BME280;17906;47.684;10.806;2022-08-19T00:54:33;92881.97;;;13.02;100.00
16738;BME280;17906;47.684;10.806;2022-08-19T00:57:02;92885.50;;;12.97;100.00
16738;BME280;17906;47.684;10.806;2022-08-19T00:59:31;92890.41;;;13.00;100.00
16738;BME280;17906;47.684;10.806;2022-08-19T01:02:01;92888.78;;;13.04;100.00
16738;BME280;17906;47.684;10.806;2022-08-19T01:04:27;92891.47;;;12.89;100.00
16738;BME280;17906;47.684;10.806;2022-08-19T01:06:56;92891.19;;;12.75;100.00
16738;BME280;17906;47.684;10.806;2022-08-19T01:09:24;92888.75;;;12.69;100.00
16738;BME280;17906;47.684;10.806;2022-08-19T01:11:51;92890.38;;;12.75;100.00
16738;BME280;17906;47.684;10.806;2022-08-19T01:14:18;92893.66;;;12.77;100.00
16738;BME280;17906;47.684;10.806;2022-08-19T01:16:46;92889.84;;;12.93;100.00
16738;BME280;17906;47.684;10.806;2022-08-19T01:19:27;92886.88;;;13.05;100.00
16738;BME280;17906;47.684;10.806;2022-08-19T01:22:03;92883.06;;;13.06;100.00
16738;BME280;17906;47.684;10.806;2022-08-19T01:24:33;92873.00;;;13.06;100.00
16738;BME280;17906;47.684;10.806;2022-08-19T01:27:03;92876.25;;;13.08;100.00
16738;BME280;17906;47.684;10.806;2022-08-19T01:29:30;92871.91;;;13.07;100.00
16738;BME280;17906;47.684;10.806;2022-08-19T01:31:57;92880.34;;;13.16;100.00
16738;BME280;17906;47.684;10.806;2022-08-19T01:34:25;92896.13;;;13.14;100.00
16738;BME280;17906;47.684;10.806;2022-08-19T01:36:52;92906.19;;;13.08;100.00
16738;BME280;17906;47.684;10.806;2022-08-19T01:39:22;92911.34;;;13.10;100.00
16738;BME280;17906;47.684;10.806;2022-08-19T01:41:50;92902.13;;;13.01;100.00
16738;BME280;17906;47.684;10.806;2022-08-19T01:44:20;92908.63;;;13.05;100.00
16738;BME280;17906;47.684;10.806;2022-08-19T01:46:51;92913.53;;;13.08;100.00
16738;BME280;17906;47.684;10.806;2022-08-19T01:49:20;92902.38;;;13.15;100.00
16738;BME280;17906;47.684;10.806;2022-08-19T01:51:49;92885.22;;;13.09;100.00
16738;BME280;17906;47.684;10.806;2022-08-19T01:54:17;92881.69;;;13.08;100.00
16738;BME280;17906;47.684;10.806;2022-08-19T01:56:43;92871.91;;;13.07;100.00
16738;BME280;17906;47.684;10.806;2022-08-19T01:59:14;92865.66;;;13.12;100.00
16738;BME280;17906;47.684;10.806;2022-08-19T02:01:42;92871.34;;;13.16;100.00
16738;BME280;17906;47.684;10.806;2022-08-19T02:04:09;92875.97;;;13.15;100.00
16738;BME280;17906;47.684;10.806;2022-08-19T02:06:36;92878.69;;;13.10;100.00
16738;BME280;17906;47.684;10.806;2022-08-19T02:09:05;92881.97;;;13.02;100.00
16738;BME280;17906;47.684;10.806;2022-08-19T02:11:34;92883.88;;;12.96;100.00
16738;BME280;17906;47.684;10.806;2022-08-19T02:14:05;92897.75;;;12.85;99.83
16738;BME280;17906;47.684;10.806;2022-08-19T02:16:34;92898.00;;;12.78;100.00
16738;BME280;17906;47.684;10.806;2022-08-19T02:19:01;92893.09;;;12.75;100.00
16738;BME280;17906;47.684;10.806;2022-08-19T02:21:29;92910.25;;;12.70;100.00
16738;BME280;17906;47.684;10.806;2022-08-19T02:24:07;92900.16;;;12.76;100.00
16738;BME280;17906;47.684;10.806;2022-08-19T02:26:33;92893.09;;;12.65;100.00
16738;BME280;17906;47.684;10.806;2022-08-19T02:29:00;92884.94;;;12.70;100.00
16738;BME280;17906;47.684;10.806;2022-08-19T02:31:27;92880.31;;;12.70;100.00
16738;BME280;17906;47.684;10.806;2022-08-19T02:33:56;92875.41;;;12.67;100.00
16738;BME280;17906;47.684;10.806;2022-08-19T02:36:24;92874.31;;;12.63;100.00
16738;BME280;17906;47.684;10.806;2022-08-19T02:38:51;92871.84;;;12.52;100.00
16738;BME280;17906;47.684;10.806;2022-08-19T02:41:20;92872.38;;;12.43;100.00
16738;BME280;17906;47.684;10.806;2022-08-19T02:43:48;92863.44;;;12.48;100.00
16738;BME280;17906;47.684;10.806;2022-08-19T02:46:18;92863.69;;;12.57;100.00
16738;BME280;17906;47.684;10.806;2022-08-19T02:48:46;92853.09;;;12.50;100.00
16738;BME280;17906;47.684;10.806;2022-08-19T02:51:17;92855.25;;;12.43;100.00
16738;BME280;17906;47.684;10.806;2022-08-19T02:53:44;92865.28;;;12.32;100.00
16738;BME280;17906;47.684;10.806;2022-08-19T02:56:11;92866.38;;;12.31;100.00
16738;BME280;17906;47.684;10.806;2022-08-19T02:58:39;92865.53;;;12.20;100.00
16738;BME280;17906;47.684;10.806;2022-08-19T03:01:06;92867.69;;;12.18;100.00
16738;BME280;17906;47.684;10.806;2022-08-19T03:03:33;92874.81;;;12.30;100.00
16738;BME280;17906;47.684;10.806;2022-08-19T03:06:07;92871.03;;;12.36;100.00
16738;BME280;17906;47.684;10.806;2022-08-19T03:08:37;92872.66;;;12.42;100.00
16738;BME280;17906;47.684;10.806;2022-08-19T03:11:04;92862.31;;;12.39;100.00
16738;BME280;17906;47.684;10.806;2022-08-19T03:13:31;92869.38;;;12.45;100.00
16738;BME280;17906;47.684;10.806;2022-08-19T03:15:58;92864.50;;;12.42;100.00
16738;BME280;17906;47.684;10.806;2022-08-19T03:18:24;92868.06;;;12.47;100.00
16738;BME280;17906;47.684;10.806;2022-08-19T03:20:52;92863.44;;;12.53;100.00
16738;BME280;17906;47.684;10.806;2022-08-19T03:23:19;92859.34;;;12.40;100.00
16738;BME280;17906;47.684;10.806;2022-08-19T03:25:49;92851.66;;;12.17;100.00
16738;BME280;17906;47.684;10.806;2022-08-19T03:28:17;92848.63;;;12.03;100.00
16738;BME280;17906;47.684;10.806;2022-08-19T03:30:55;92842.63;;;12.11;100.00
16738;BME280;17906;47.684;10.806;2022-08-19T03:33:24;92837.25;;;12.16;100.00
16738;BME280;17906;47.684;10.806;2022-08-19T03:36:03;92829.66;;;12.18;100.00
16738;BME280;17906;47.684;10.806;2022-08-19T03:38:34;92822.06;;;12.26;100.00
16738;BME280;17906;47.684;10.806;2022-08-19T03:41:09;92819.06;;;12.22;100.00
16738;BME280;17906;47.684;10.806;2022-08-19T03:43:37;92810.38;;;12.30;100.00
16738;BME280;17906;47.684;10.806;2022-08-19T03:46:07;92818.25;;;12.22;100.00
16738;BME280;17906;47.684;10.806;2022-08-19T03:48:35;92814.16;;;12.19;100.00
16738;BME280;17906;47.684;10.806;2022-08-19T03:51:02;92820.69;;;12.18;100.00
16738;BME280;17906;47.684;10.806;2022-08-19T03:53:31;92824.13;;;11.98;100.00
16738;BME280;17906;47.684;10.806;2022-08-19T03:55:58;92817.03;;;11.87;99.92
16738;BME280;17906;47.684;10.806;2022-08-19T03:58:27;92829.75;;;11.71;100.00
16738;BME280;17906;47.684;10.806;2022-08-19T04:00:55;92841.34;;;11.51;98.98
16738;BME280;17906;47.684;10.806;2022-08-19T04:03:21;92834.50;;;11.44;100.00
16738;BME280;17906;47.684;10.806;2022-08-19T04:05:48;92839.94;;;11.44;100.00
16738;BME280;17906;47.684;10.806;2022-08-19T04:08:15;92842.09;;;11.47;100.00
16738;BME280;17906;47.684;10.806;2022-08-19T04:10:45;92845.09;;;11.45;100.00
16738;BME280;17906;47.684;10.806;2022-08-19T04:13:12;92849.44;;;11.46;100.00
16738;BME280;17906;47.684;10.806;2022-08-19T04:15:41;92847.03;;;11.55;100.00
16738;BME280;17906;47.684;10.806;2022-08-19T04:18:08;92850.03;;;11.53;100.00
16738;BME280;17906;47.684;10.806;2022-08-19T04:20:40;92846.44;;;11.48;100.00
16738;BME280;17906;47.684;10.806;2022-08-19T04:23:07;92854.09;;;11.56;100.00
16738;BME280;17906;47.684;10.806;2022-08-19T04:25:38;92867.41;;;11.57;100.00
16738;BME280;17906;47.684;10.806;2022-08-19T04:28:05;92868.25;;;11.63;100.00
16738;BME280;17906;47.684;10.806;2022-08-19T04:30:38;92864.25;;;11.71;100.00
16738;BME280;17906;47.684;10.806;2022-08-19T04:33:06;92867.47;;;11.68;100.00
16738;BME280;17906;47.684;10.806;2022-08-19T04:35:35;92860.88;;;11.53;100.00
16738;BME280;17906;47.684;10.806;2022-08-19T04:38:03;92857.91;;;11.55;100.00
16738;BME280;17906;47.684;10.806;2022-08-19T04:40:29;92862.22;;;11.51;100.00
16738;BME280;17906;47.684;10.806;2022-08-19T04:43:13;92866.38;;;11.63;100.00
16738;BME280;17906;47.684;10.806;2022-08-19T04:45:41;92867.25;;;11.79;100.00
16738;BME280;17906;47.684;10.806;2022-08-19T04:48:10;92869.19;;;11.89;100.00
16738;BME280;17906;47.684;10.806;2022-08-19T04:50:40;92878.16;;;11.84;100.00
16738;BME280;17906;47.684;10.806;2022-08-19T04:53:08;92880.09;;;11.99;100.00
16738;BME280;17906;47.684;10.806;2022-08-19T04:55:38;92872.53;;;12.11;100.00
16738;BME280;17906;47.684;10.806;2022-08-19T04:58:05;92872.06;;;12.19;100.00
16738;BME280;17906;47.684;10.806;2022-08-19T05:00:31;92872.09;;;12.25;100.00
16738;BME280;17906;47.684;10.806;2022-08-19T05:02:58;92870.97;;;12.20;100.00
16738;BME280;17906;47.684;10.806;2022-08-19T05:05:27;92878.31;;;12.15;100.00
16738;BME280;17906;47.684;10.806;2022-08-19T05:07:54;92889.97;;;12.15;100.00
16738;BME280;17906;47.684;10.806;2022-08-19T05:10:21;92897.59;;;12.18;100.00
16738;BME280;17906;47.684;10.806;2022-08-19T05:12:48;92904.38;;;12.21;100.00
16738;BME280;17906;47.684;10.806;2022-08-19T05:15:14;92895.44;;;12.20;100.00
16738;BME280;17906;47.684;10.806;2022-08-19T05:17:41;92880.25;;;12.25;100.00
16738;BME280;17906;47.684;10.806;2022-08-19T05:20:29;92863.69;;;12.41;100.00
16738;BME280;17906;47.684;10.806;2022-08-19T05:23:13;92864.53;;;12.47;100.00
16738;BME280;17906;47.684;10.806;2022-08-19T05:25:41;92874.31;;;12.53;100.00
16738;BME280;17906;47.684;10.806;2022-08-19T05:28:08;92869.69;;;12.54;100.00
16738;BME280;17906;47.684;10.806;2022-08-19T05:30:34;92869.97;;;12.57;100.00
16738;BME280;17906;47.684;10.806;2022-08-19T05:33:01;92861.81;;;12.62;100.00
16738;BME280;17906;47.684;10.806;2022-08-19T05:35:28;92866.69;;;12.65;100.00
16738;BME280;17906;47.684;10.806;2022-08-19T05:37:57;92867.81;;;12.69;100.00
16738;BME280;17906;47.684;10.806;2022-08-19T05:40:24;92863.19;;;12.70;100.00
16738;BME280;17906;47.684;10.806;2022-08-19T05:42:50;92867.53;;;12.61;100.00
16738;BME280;17906;47.684;10.806;2022-08-19T05:45:18;92867.78;;;12.64;100.00
16738;BME280;17906;47.684;10.806;2022-08-19T05:47:45;92872.41;;;12.59;100.00
16738;BME280;17906;47.684;10.806;2022-08-19T05:50:12;92887.66;;;12.65;100.00
16738;BME280;17906;47.684;10.806;2022-08-19T05:52:38;92881.69;;;12.73;100.00
16738;BME280;17906;47.684;10.806;2022-08-19T05:55:07;92884.13;;;12.74;100.00
16738;BME280;17906;47.684;10.806;2022-08-19T05:57:34;92884.16;;;12.80;100.00
16738;BME280;17906;47.684;10.806;2022-08-19T06:00:03;92889.00;;;12.67;100.00
16738;BME280;17906;47.684;10.806;2022-08-19T06:02:33;92892.53;;;12.63;100.00
16738;BME280;17906;47.684;10.806;2022-08-19T06:05:00;92892.81;;;12.66;100.00
16738;BME280;17906;47.684;10.806;2022-08-19T06:07:27;92893.94;;;12.81;100.00
16738;BME280;17906;47.684;10.806;2022-08-19T06:09:55;92891.50;;;12.94;100.00
16738;BME280;17906;47.684;10.806;2022-08-19T06:12:23;92884.16;;;12.95;100.00
16738;BME280;17906;47.684;10.806;2022-08-19T06:14:54;92882.78;;;13.02;100.00
16738;BME280;17906;47.684;10.806;2022-08-19T06:17:20;92881.44;;;13.15;100.00
16738;BME280;17906;47.684;10.806;2022-08-19T06:19:47;92874.34;;;13.24;100.00
16738;BME280;17906;47.684;10.806;2022-08-19T06:22:15;92884.94;;;13.21;100.00
16738;BME280;17906;47.684;10.806;2022-08-19T06:24:42;92870.56;;;13.35;100.00
16738;BME280;17906;47.684;10.806;2022-08-19T06:27:09;92865.34;;;13.49;100.00
16738;BME280;17906;47.684;10.806;2022-08-19T06:29:37;92869.41;;;13.52;100.00
16738;BME280;17906;47.684;10.806;2022-08-19T06:32:05;92872.69;;;13.59;100.00
16738;BME280;17906;47.684;10.806;2022-08-19T06:34:32;92883.00;;;13.72;100.00
16738;BME280;17906;47.684;10.806;2022-08-19T06:37:01;92887.84;;;13.85;100.00
16738;BME280;17906;47.684;10.806;2022-08-19T06:39:30;92879.66;;;13.96;100.00
16738;BME280;17906;47.684;10.806;2022-08-19T06:41:59;92895.72;;;14.02;100.00
16738;BME280;17906;47.684;10.806;2022-08-19T06:44:28;92900.59;;;14.05;98.90
16738;BME280;17906;47.684;10.806;2022-08-19T06:47:05;92902.78;;;14.08;99.93
16738;BME280;17906;47.684;10.806;2022-08-19T06:49:32;92905.75;;;14.22;100.00
16738;BME280;17906;47.684;10.806;2022-08-19T06:52:00;92912.53;;;14.19;98.99
16738;BME280;17906;47.684;10.806;2022-08-19T06:54:27;92919.09;;;14.18;98.79
16738;BME280;17906;47.684;10.806;2022-08-19T06:56:55;92924.00;;;14.16;100.00
16738;BME280;17906;47.684;10.806;2022-08-19T06:59:24;92938.75;;;14.20;99.46
16738;BME280;17906;47.684;10.806;2022-08-19T07:01:55;92925.34;;;14.19;97.20
16738;BME280;17906;47.684;10.806;2022-08-19T07:04:25;92927.59;;;14.12;98.50
16738;BME280;17906;47.684;10.806;2022-08-19T07:06:57;92922.41;;;14.05;100.00
16738;BME280;17906;47.684;10.806;2022-08-19T07:09:25;92925.16;;;14.00;100.00
16738;BME280;17906;47.684;10.806;2022-08-19T07:11:53;92919.16;;;14.03;100.00
16738;BME280;17906;47.684;10.806;2022-08-19T07:14:22;92916.16;;;14.05;100.00
16738;BME280;17906;47.684;10.806;2022-08-19T07:16:50;92903.63;;;14.04;100.00
16738;BME280;17906;47.684;10.806;2022-08-19T07:19:19;92905.81;;;13.97;100.00
16738;BME280;17906;47.684;10.806;2022-08-19T07:21:49;92911.81;;;13.93;100.00
16738;BME280;17906;47.684;10.806;2022-08-19T07:24:17;92916.16;;;14.05;100.00
16738;BME280;17906;47.684;10.806;2022-08-19T07:26:43;92920.22;;;14.07;100.00
16738;BME280;17906;47.684;10.806;2022-08-19T07:29:11;92917.78;;;14.06;100.00
16738;BME280;17906;47.684;10.806;2022-08-19T07:31:38;92914.78;;;14.12;100.00
16738;BME280;17906;47.684;10.806;2022-08-19T07:34:07;92907.13;;;14.14;100.00
16738;BME280;17906;47.684;10.806;2022-08-19T07:36:36;92914.78;;;14.12;100.00
16738;BME280;17906;47.684;10.806;2022-08-19T07:39:13;92904.97;;;14.11;100.00
16738;BME280;17906;47.684;10.806;2022-08-19T07:41:40;92909.56;;;14.21;100.00
16738;BME280;17906;47.684;10.806;2022-08-19T07:44:08;92911.19;;;14.17;100.00
16738;BME280;17906;47.684;10.806;2022-08-19T07:46:37;92916.66;;;14.22;100.00
16738;BME280;17906;47.684;10.806;2022-08-19T07:49:05;92920.47;;;14.21;100.00
16738;BME280;17906;47.684;10.806;2022-08-19T07:51:33;92914.44;;;14.24;100.00
16738;BME280;17906;47.684;10.806;2022-08-19T07:54:00;92910.34;;;14.27;100.00
16738;BME280;17906;47.684;10.806;2022-08-19T07:56:28;92908.72;;;14.31;100.00
16738;BME280;17906;47.684;10.806;2022-08-19T07:58:55;92900.25;;;14.32;100.00
16738;BME280;17906;47.684;10.806;2022-08-19T08:01:24;92900.25;;;14.32;99.29
16738;BME280;17906;47.684;10.806;2022-08-19T08:03:52;92895.31;;;14.34;99.74
16738;BME280;17906;47.684;10.806;2022-08-19T08:06:36;92889.03;;;14.44;98.06
16738;BME280;17906;47.684;10.806;2022-08-19T08:09:23;92897.47;;;14.47;98.26
16738;BME280;17906;47.684;10.806;2022-08-19T08:11:55;92898.53;;;14.51;98.36
16738;BME280;17906;47.684;10.806;2022-08-19T08:14:25;92896.38;;;14.48;98.10
16738;BME280;17906;47.684;10.806;2022-08-19T08:16:52;92901.25;;;14.57;98.07
16738;BME280;17906;47.684;10.806;2022-08-19T08:19:20;92900.19;;;14.47;96.18
16738;BME280;17906;47.684;10.806;2022-08-19T08:21:49;92900.72;;;14.49;96.87
16738;BME280;17906;47.684;10.806;2022-08-19T08:24:16;92901.81;;;14.54;98.99
16738;BME280;17906;47.684;10.806;2022-08-19T08:26:43;92897.41;;;14.58;99.97
16738;BME280;17906;47.684;10.806;2022-08-19T08:29:11;92912.72;;;14.48;100.00
16738;BME280;17906;47.684;10.806;2022-08-19T08:31:39;92897.22;;;14.44;100.00
16738;BME280;17906;47.684;10.806;2022-08-19T08:34:06;92904.00;;;14.46;100.00
16738;BME280;17906;47.684;10.806;2022-08-19T08:36:36;92904.31;;;14.45;100.00
16738;BME280;17906;47.684;10.806;2022-08-19T08:39:06;92902.88;;;14.58;100.00
16738;BME280;17906;47.684;10.806;2022-08-19T08:41:37;92897.09;;;14.64;100.00
16738;BME280;17906;47.684;10.806;2022-08-19T08:44:14;92890.84;;;14.64;99.12
16738;BME280;17906;47.684;10.806;2022-08-19T08:46:45;92899.28;;;14.62;98.46
16738;BME280;17906;47.684;10.806;2022-08-19T08:49:23;92915.91;;;14.66;98.03
16738;BME280;17906;47.684;10.806;2022-08-19T08:51:52;92930.16;;;14.58;97.72
16738;BME280;17906;47.684;10.806;2022-08-19T08:54:25;92931.81;;;14.54;98.35
16738;BME280;17906;47.684;10.806;2022-08-19T08:56:55;92931.81;;;14.48;98.35
16738;BME280;17906;47.684;10.806;2022-08-19T08:59:29;92938.66;;;14.41;98.90
16738;BME280;17906;47.684;10.806;2022-08-19T09:01:57;92941.09;;;14.47;99.43
16738;BME280;17906;47.684;10.806;2022-08-19T09:04:24;92935.34;;;14.54;100.00
16738;BME280;17906;47.684;10.806;2022-08-19T09:06:55;92941.34;;;14.56;100.00
16738;BME280;17906;47.684;10.806;2022-08-19T09:09:34;92943.25;;;14.56;100.00
16738;BME280;17906;47.684;10.806;2022-08-19T09:12:06;92941.34;;;14.56;100.00
16738;BME280;17906;47.684;10.806;2022-08-19T09:14:45;92942.16;;;14.57;100.00
16738;BME280;17906;47.684;10.806;2022-08-19T09:17:14;92951.72;;;14.54;100.00
16738;BME280;17906;47.684;10.806;2022-08-19T09:19:49;92960.72;;;14.49;100.00
16738;BME280;17906;47.684;10.806;2022-08-19T09:22:17;92956.66;;;14.47;100.00
16738;BME280;17906;47.684;10.806;2022-08-19T09:24:46;92957.19;;;14.49;100.00
16738;BME280;17906;47.684;10.806;2022-08-19T09:27:12;92965.13;;;14.45;100.00
16738;BME280;17906;47.684;10.806;2022-08-19T09:29:41;92957.50;;;14.42;100.00
16738;BME280;17906;47.684;10.806;2022-08-19T09:32:07;92944.69;;;14.33;100.00
16738;BME280;17906;47.684;10.806;2022-08-19T09:34:34;92952.88;;;14.28;100.00
16738;BME280;17906;47.684;10.806;2022-08-19T09:37:01;92952.88;;;14.28;100.00
16738;BME280;17906;47.684;10.806;2022-08-19T09:39:28;92957.22;;;14.29;100.00
16738;BME280;17906;47.684;10.806;2022-08-19T09:41:55;92953.69;;;14.33;100.00
16738;BME280;17906;47.684;10.806;2022-08-19T09:44:22;92965.94;;;14.36;100.00
16738;BME280;17906;47.684;10.806;2022-08-19T09:46:50;92952.88;;;14.33;100.00
16738;BME280;17906;47.684;10.806;2022-08-19T09:49:18;92953.13;;;14.41;100.00
16738;BME280;17906;47.684;10.806;2022-08-19T09:51:49;92963.22;;;14.46;100.00
16738;BME280;17906;47.684;10.806;2022-08-19T09:54:17;92961.28;;;14.41;100.00
16738;BME280;17906;47.684;10.806;2022-08-19T09:56:43;92958.84;;;14.35;100.00
16738;BME280;17906;47.684;10.806;2022-08-19T09:59:10;92960.22;;;14.32;100.00
16738;BME280;17906;47.684;10.806;2022-08-19T10:01:38;92962.41;;;14.30;100.00
16738;BME280;17906;47.684;10.806;2022-08-19T10:04:06;92963.25;;;14.31;100.00
16738;BME280;17906;47.684;10.806;2022-08-19T10:06:35;92962.41;;;14.30;100.00
16738;BME280;17906;47.684;10.806;2022-08-19T10:09:03;92965.41;;;14.29;100.00
16738;BME280;17906;47.684;10.806;2022-08-19T10:11:32;92967.03;;;14.40;100.00
16738;BME280;17906;47.684;10.806;2022-08-19T10:13:59;92964.59;;;14.43;100.00
16738;BME280;17906;47.684;10.806;2022-08-19T10:16:25;92964.56;;;14.48;100.00
16738;BME280;17906;47.684;10.806;2022-08-19T10:18:53;92969.44;;;14.51;100.00
16738;BME280;17906;47.684;10.806;2022-08-19T10:21:24;92968.09;;;14.54;100.00
16738;BME280;17906;47.684;10.806;2022-08-19T10:23:53;92963.94;;;14.62;100.00
16738;BME280;17906;47.684;10.806;2022-08-19T10:26:23;92968.88;;;14.65;100.00
16738;BME280;17906;47.684;10.806;2022-08-19T10:28:50;92971.03;;;14.63;100.00
16738;BME280;17906;47.684;10.806;2022-08-19T10:31:19;92968.28;;;14.68;100.00
16738;BME280;17906;47.684;10.806;2022-08-19T10:33:47;92976.69;;;14.82;100.00
16738;BME280;17906;47.684;10.806;2022-08-19T10:36:16;92972.25;;;14.91;100.00
16738;BME280;17906;47.684;10.806;2022-08-19T10:38:46;92976.34;;;14.93;100.00
16738;BME280;17906;47.684;10.806;2022-08-19T10:41:17;92983.47;;;14.84;100.00
16738;BME280;17906;47.684;10.806;2022-08-19T10:43:46;92981.25;;;14.91;100.00
16738;BME280;17906;47.684;10.806;2022-08-19T10:46:14;92974.75;;;14.82;100.00
16738;BME280;17906;47.684;10.806;2022-08-19T10:48:42;92978.59;;;14.86;100.00
16738;BME280;17906;47.684;10.806;2022-08-19T10:51:09;92977.72;;;14.91;100.00
16738;BME280;17906;47.684;10.806;2022-08-19T10:53:56;92976.03;;;15.00;100.00
16738;BME280;17906;47.684;10.806;2022-08-19T10:56:23;92971.97;;;14.97;100.00
16738;BME280;17906;47.684;10.806;2022-08-19T10:59:07;92976.03;;;15.00;100.00
16738;BME280;17906;47.684;10.806;2022-08-19T11:01:34;92976.31;;;14.98;100.00
16738;BME280;17906;47.684;10.806;2022-08-19T11:04:03;92967.56;;;15.01;100.00
16738;BME280;17906;47.684;10.806;2022-08-19T11:06:30;92973.84;;;15.02;100.00
16738;BME280;17906;47.684;10.806;2022-08-19T11:08:58;92968.63;;;15.05;100.00
16738;BME280;17906;47.684;10.806;2022-08-19T11:11:26;92974.06;;;15.05;100.00
16738;BME280;17906;47.684;10.806;2022-08-19T11:13:53;92970.75;;;15.14;100.00
16738;BME280;17906;47.684;10.806;2022-08-19T11:16:22;92968.72;;;15.34;100.00
16738;BME280;17906;47.684;10.806;2022-08-19T11:18:52;92960.75;;;15.43;100.00
16738;BME280;17906;47.684;10.806;2022-08-19T11:21:22;92962.94;;;15.36;100.00
16738;BME280;17906;47.684;10.806;2022-08-19T11:23:52;92946.34;;;15.27;100.00
16738;BME280;17906;47.684;10.806;2022-08-19T11:26:21;92953.72;;;15.32;100.00
16738;BME280;17906;47.684;10.806;2022-08-19T11:28:49;92947.09;;;15.38;100.00
16738;BME280;17906;47.684;10.806;2022-08-19T11:31:21;92935.66;;;15.41;100.00
16738;BME280;17906;47.684;10.806;2022-08-19T11:33:48;92942.38;;;15.49;100.00
16738;BME280;17906;47.684;10.806;2022-08-19T11:36:18;92942.94;;;15.51;100.00
16738;BME280;17906;47.684;10.806;2022-08-19T11:38:48;92953.78;;;15.61;100.00
16738;BME280;17906;47.684;10.806;2022-08-19T11:41:17;92950.03;;;15.81;100.00
16738;BME280;17906;47.684;10.806;2022-08-19T11:43:45;92952.63;;;15.96;100.00
16738;BME280;17906;47.684;10.806;2022-08-19T11:46:14;92955.22;;;16.11;100.00
16738;BME280;17906;47.684;10.806;2022-08-19T11:48:41;92954.19;;;16.02;97.69
16738;BME280;17906;47.684;10.806;2022-08-19T11:51:11;92953.53;;;16.15;100.00
16738;BME280;17906;47.684;10.806;2022-08-19T11:53:38;92957.41;;;16.09;96.49
16738;BME280;17906;47.684;10.806;2022-08-19T11:56:06;92950.38;;;16.03;100.00
16738;BME280;17906;47.684;10.806;2022-08-19T11:58:34;92947.41;;;16.23;100.00
16738;BME280;17906;47.684;10.806;2022-08-19T12:01:05;92956.78;;;16.17;97.87
16738;BME280;17906;47.684;10.806;2022-08-19T12:03:32;92960.63;;;16.16;98.66
16738;BME280;17906;47.684;10.806;2022-08-19T12:06:03;92958.75;;;16.12;98.08
16738;BME280;17906;47.684;10.806;2022-08-19T12:08:30;92962.94;;;16.04;98.54
16738;BME280;17906;47.684;10.806;2022-08-19T12:10:57;92954.66;;;15.85;96.19
16738;BME280;17906;47.684;10.806;2022-08-19T12:13:26;92960.22;;;15.75;99.29
16738;BME280;17906;47.684;10.806;2022-08-19T12:15:53;92967.09;;;15.68;96.93
16738;BME280;17906;47.684;10.806;2022-08-19T12:18:21;92974.94;;;15.79;99.14
16738;BME280;17906;47.684;10.806;2022-08-19T12:20:51;92972.47;;;15.83;98.97
16738;BME280;17906;47.684;10.806;2022-08-19T12:23:19;92977.03;;;15.87;98.68
16738;BME280;17906;47.684;10.806;2022-08-19T12:25:48;92974.09;;;15.84;97.93
16738;BME280;17906;47.684;10.806;2022-08-19T12:28:17;92975.50;;;15.76;97.62
16738;BME280;17906;47.684;10.806;2022-08-19T12:30:44;92977.00;;;15.63;99.29
16738;BME280;17906;47.684;10.806;2022-08-19T12:33:10;92984.38;;;15.63;100.00
16738;BME280;17906;47.684;10.806;2022-08-19T12:35:40;92980.47;;;15.69;100.00
16738;BME280;17906;47.684;10.806;2022-08-19T12:38:07;92974.50;;;15.67;98.60
16738;BME280;17906;47.684;10.806;2022-08-19T12:40:34;92989.03;;;15.62;98.67
16738;BME280;17906;47.684;10.806;2022-08-19T12:43:01;92985.25;;;15.53;97.65
16738;BME280;17906;47.684;10.806;2022-08-19T12:45:27;92984.91;;;15.60;99.98
16738;BME280;17906;47.684;10.806;2022-08-19T12:47:54;92986.84;;;15.59;99.61